M I D A S
Marine Information and Data Acquisition System
Tripno 371 of the Zeeleeuw from 2002-12-17 07:58:17 to 2002-12-17 15:40:07
Back to CruiseResearch ActivitiesStationsMapUnderway DataData graphs

EquipmentUnitsComment
TimeDGPSUTC
LatitudeDGPSDM.mWGS84
LongitudeDGPSDM.mWGS84
HeadingGyrodeg 
SOGDGPSknotsSpeed over ground
COGDGPSdegCourse over ground
DepthEcho soundermeters200 kHz
Missing or incorrect values are displayed as -999
Navigation data collected by the RV Zeeleeuw from 2002-12-17 07:58:17 to 2002-12-17 15:40:07
                                                                                    Next 1000 lines
Time Latitude Longitude Heading SOG COG Depth
2002-12-17 07:58:25 51°13.582 2°56.131 125.8   118.3 8.2
2002-12-17 07:58:31 51°13.582 2°56.131 125.3 0.1 121.7 8.2
2002-12-17 07:58:37 51°13.582 2°56.131 124.2 0.1 88.3 8.2
2002-12-17 07:58:41 51°13.582 2°56.131 123.3 0.1 117.2 8.2
2002-12-17 07:58:45 51°13.582 2°56.131 123 0.1 289.2 8.2
2002-12-17 07:58:50 51°13.582 2°56.13 123 0.3 290.1 8.2
2002-12-17 07:58:55 51°13.583 2°56.129 123.3 0.7 294.2 8.2
2002-12-17 07:59:01 51°13.584 2°56.126 123.8 1 297.9 8.2
2002-12-17 07:59:05 51°13.585 2°56.123 124.3 1.5 301.1 8.1
2002-12-17 07:59:11 51°13.587 2°56.118 124.3 2.1 300.9 -999
2002-12-17 07:59:17 51°13.589 2°56.112 124.2 2.7 300.8 -999
2002-12-17 07:59:21 51°13.591 2°56.107 123.7 3.2 300.4 -999
2002-12-17 07:59:27 51°13.593 2°56.098 123.5 3.6 300 -999
2002-12-17 07:59:33 51°13.597 2°56.089 123.5 4 300 -999
2002-12-17 07:59:37 51°13.6 2°56.082 123.3 4.4 300.3 -999
2002-12-17 07:59:42 51°13.603 2°56.072 123 4.7 300.2 -999
2002-12-17 07:59:47 51°13.607 2°56.062 122.3 5.1 299.9 -999
2002-12-17 07:59:52 51°13.611 2°56.051 121.7 5.4 299.2 -999
2002-12-17 07:59:57 51°13.614 2°56.04 120.7 5.7 298.3 -999
2002-12-17 08:00:02 51°13.618 2°56.028 119.8 5.9 297.6 -999
2002-12-17 08:00:07 51°13.622 2°56.015 119.3 6.2 296.9 -999
2002-12-17 08:00:12 51°13.626 2°56.003 118.7 6.4 296.2 -999
2002-12-17 08:00:17 51°13.63 2°55.989 118 6.6 295.7 -999
2002-12-17 08:00:22 51°13.634 2°55.975 117 6.8 294.5 -999
2002-12-17 08:00:26 51°13.637 2°55.964 116.3 6.9 293.7 -999
2002-12-17 08:00:33 51°13.642 2°55.943 115.8 7.1 292.8 -999
2002-12-17 08:00:37 51°13.645 2°55.931 115.5 7.2 292.3 -999
2002-12-17 08:00:42 51°13.649 2°55.916 115.3 7.3 292 -999
2002-12-17 08:00:47 51°13.653 2°55.901 115.2 7.4 291.6 -999
2002-12-17 08:00:53 51°13.657 2°55.883 114.3 7.3 291.4 -999
2002-12-17 08:00:57 51°13.66 2°55.872 113.3 7 290.9 -999
2002-12-17 08:01:02 51°13.663 2°55.859 111.8 6.7 290.1 9.9
2002-12-17 08:01:05 51°13.665 2°55.85 110.3 6.4 289.2 -999
2002-12-17 08:01:13 51°13.668 2°55.83 108.5 6.2 288.3 -999
2002-12-17 08:01:17 51°13.67 2°55.821 106.5 5.8 287 -999
2002-12-17 08:01:22 51°13.672 2°55.809 104.3 5.4 285.3 -999
2002-12-17 08:01:27 51°13.674 2°55.798 102.8 5.2 284.2 9.9
2002-12-17 08:01:30 51°13.674 2°55.792 101.5 4.9 282.6 10.7
2002-12-17 08:01:37 51°13.676 2°55.779 99.7 4.6 281.7 11.1
2002-12-17 08:01:42 51°13.677 2°55.771 97.2 4 280.7 11.2
2002-12-17 08:01:47 51°13.677 2°55.764 93.7 3.5 278 11.3
2002-12-17 08:01:52 51°13.677 2°55.758 89.7 2.9 277.2 11.3
2002-12-17 08:01:54 51°13.677 2°55.756 86.7 2.5 274.1 11.3
2002-12-17 08:02:02 51°13.677 2°55.749 83 2.1 272 11.8
2002-12-17 08:02:06 51°13.678 2°55.747 79.5 1.7 271.9 12.4
2002-12-17 08:02:10 51°13.678 2°55.746 74.7 1.1 273.1 12.7
2002-12-17 08:02:17 51°13.678 2°55.743 70.3 0.8 279.4 13.1
2002-12-17 08:02:21 51°13.678 2°55.743 66.3 0.6 289.3 13.4
2002-12-17 08:02:25 51°13.679 2°55.742 62.3 0.5 316 13.6
2002-12-17 08:02:30 51°13.68 2°55.743 57.2 0.6 351 13.7
2002-12-17 08:02:37 51°13.681 2°55.743 51.5 0.8 11.4 13.7
2002-12-17 08:02:42 51°13.683 2°55.744 45.5 1 18.5 13.8
2002-12-17 08:02:45 51°13.684 2°55.744 38.7 1.3 17.2 13.7
2002-12-17 08:02:51 51°13.687 2°55.745 31.8 1.5 13.9 13.7
2002-12-17 08:02:57 51°13.69 2°55.746 25.2 1.8 9.1 13.7
2002-12-17 08:03:02 51°13.693 2°55.746 18 2 3.7 13.7
2002-12-17 08:03:06 51°13.695 2°55.745 10.8 2.1 358.5 -999
2002-12-17 08:03:11 51°13.699 2°55.744 4.2 2.3 352.7 13.1
2002-12-17 08:03:17 51°13.703 2°55.743 358 2.5 348.3 13.6
2002-12-17 08:03:21 51°13.706 2°55.741 352.5 2.7 343.6 13.2
2002-12-17 08:03:27 51°13.711 2°55.738 347.7 3 340.3 13.1
2002-12-17 08:03:31 51°13.715 2°55.735 344.2 3.4 336.3 12.5
2002-12-17 08:03:36 51°13.719 2°55.732 342.5 3.7 335.4 11.8
2002-12-17 08:03:41 51°13.725 2°55.728 340.5 4.1 333.9 11
2002-12-17 08:03:46 51°13.73 2°55.723 338.7 4.5 332.3 10.9
2002-12-17 08:03:52 51°13.738 2°55.716 337.8 5 331.3 10.7
2002-12-17 08:03:57 51°13.746 2°55.71 338 5.5 331.1 10.4
2002-12-17 08:04:01 51°13.752 2°55.705 337.5 5.9 331 10.2
2002-12-17 08:04:05 51°13.758 2°55.699 337 6.2 331 10.2
2002-12-17 08:04:11 51°13.768 2°55.691 337.5 6.5 331 10.2
2002-12-17 08:04:17 51°13.779 2°55.682 338.5 6.9 332.3 10.2
2002-12-17 08:04:21 51°13.786 2°55.676 339 7.1 333 -999
2002-12-17 08:04:27 51°13.798 2°55.667 339.5 7.3 333.6 10.9
2002-12-17 08:04:31 51°13.806 2°55.661 340 7.6 334.3 10.7
2002-12-17 08:04:37 51°13.818 2°55.652 340.3 7.8 334.8 10.7
2002-12-17 08:04:42 51°13.828 2°55.645 341 7.9 335.1 11
2002-12-17 08:04:47 51°13.838 2°55.637 341 8.1 335.5 10.9
2002-12-17 08:04:50 51°13.844 2°55.633 339.3 8.3 334.7 10.8
2002-12-17 08:04:57 51°13.857 2°55.621 338.2 8.3 332.9 10.8
2002-12-17 08:05:01 51°13.866 2°55.614 338.3 8.5 332.4 10.8
2002-12-17 08:05:06 51°13.876 2°55.605 339.7 8.6 333 10.9
2002-12-17 08:05:11 51°13.887 2°55.597 340.7 8.7 334.4 10.9
2002-12-17 08:05:17 51°13.9 2°55.587 341 8.7 334.5 11
2002-12-17 08:05:22 51°13.911 2°55.58 341.7 8.8 335.4 11
2002-12-17 08:05:25 51°13.918 2°55.575 341.3 8.8 335.4 11
2002-12-17 08:05:31 51°13.931 2°55.565 341.2 8.8 335.6 10.9
2002-12-17 08:05:37 51°13.945 2°55.555 341.3 8.9 335.5 10.7
2002-12-17 08:05:42 51°13.956 2°55.547 341.2 8.9 335.7 11
2002-12-17 08:05:47 51°13.967 2°55.539 340.7 8.9 335.1 11.1
2002-12-17 08:05:52 51°13.978 2°55.53 340.5 8.9 334.8 11.1
2002-12-17 08:05:57 51°13.989 2°55.522 341 9 334.5 11
2002-12-17 08:06:02 51°14 2°55.514 341.3 9 335.5 11.1
2002-12-17 08:06:06 51°14.009 2°55.507 340.5 8.9 335 10.9
2002-12-17 08:06:11 51°14.02 2°55.499 340 8.9 334.7 11
2002-12-17 08:06:17 51°14.034 2°55.489 340.3 8.9 334.6 11.1
2002-12-17 08:06:22 51°14.046 2°55.48 340.7 9 335 11.1
2002-12-17 08:06:26 51°14.055 2°55.473 339.7 9 334.3 11.1
2002-12-17 08:06:32 51°14.069 2°55.462 339.3 9.1 333.8 10.4
2002-12-17 08:06:37 51°14.081 2°55.452 339.2 9.5 333.3 10.8
2002-12-17 08:06:42 51°14.095 2°55.441 338 10.1 332.7 10.9
2002-12-17 08:06:45 51°14.103 2°55.434 337.3 10.9 331.5 10.5
2002-12-17 08:06:51 51°14.12 2°55.419 338.5 11.5 331.9 10.1
2002-12-17 08:06:57 51°14.137 2°55.404 337.7 11.8 331.9 10.7
2002-12-17 08:07:02 51°14.152 2°55.39 336.5 12.1 330.3 11.5
2002-12-17 08:07:06 51°14.164 2°55.379 335.3 12.4 329.7 10.5
2002-12-17 08:07:12 51°14.181 2°55.36 333.5 12.6 327.1 10.8
2002-12-17 08:07:17 51°14.196 2°55.344 332 12.6 326.4 10.8
2002-12-17 08:07:22 51°14.21 2°55.326 329.3 12.7 323.8 10.8
2002-12-17 08:07:27 51°14.223 2°55.309 327.5 12.7 321.9 10.8
2002-12-17 08:07:29 51°14.228 2°55.302 326.5 12.7 319.9 10.7
2002-12-17 08:07:37 51°14.249 2°55.272 324.7 12.7 319 10.7
2002-12-17 08:07:41 51°14.259 2°55.255 321.5 12.7 316 11
2002-12-17 08:07:45 51°14.269 2°55.239 319.5 12.8 314.1 10.8
2002-12-17 08:07:51 51°14.283 2°55.214 318.5 12.8 312.4 10.6
2002-12-17 08:07:57 51°14.297 2°55.188 317.8 12.8 312 10.5
2002-12-17 08:08:02 51°14.308 2°55.166 316.3 12.9 310.5 10.5
2002-12-17 08:08:06 51°14.317 2°55.149 315.5 13 309.9 10.7
2002-12-17 08:08:11 51°14.328 2°55.126 315.2 13.1 309.2 10.7
2002-12-17 08:08:17 51°14.342 2°55.1 315.8 13.1 309.6 10.4
2002-12-17 08:08:21 51°14.351 2°55.082 315.2 13.1 309.4 10.8
2002-12-17 08:08:27 51°14.364 2°55.055 315 13.1 308.9 10.9
2002-12-17 08:08:31 51°14.373 2°55.037 314.8 13.2 308.8 10.9
2002-12-17 08:08:37 51°14.387 2°55.01 315.2 13.2 309.1 10.8
2002-12-17 08:08:42 51°14.4 2°54.989 317.8 13.2 311.1 10.6
2002-12-17 08:08:46 51°14.41 2°54.975 322 13.1 314.7 10.7
2002-12-17 08:08:52 51°14.428 2°54.953 327.2 13.1 320.1 10.6
2002-12-17 08:08:57 51°14.443 2°54.936 330.2 13.1 323.4 10.6
2002-12-17 08:09:02 51°14.46 2°54.919 332.7 13.2 325.5 10.5
2002-12-17 08:09:06 51°14.472 2°54.907 335 13.2 328 10.3
2002-12-17 08:09:10 51°14.485 2°54.895 336.2 13.2 329.1 10.4
2002-12-17 08:09:15 51°14.501 2°54.88 336.5 13.2 329.6 10.3
2002-12-17 08:09:21 51°14.52 2°54.862 336.2 13.3 329.6 10.3
2002-12-17 08:09:27 51°14.539 2°54.844 335.8 13.3 329.3 10.3
2002-12-17 08:09:31 51°14.551 2°54.832 335.2 13.3 328.7 10.3
2002-12-17 08:09:37 51°14.569 2°54.813 334.7 13.4 327.6 10.2
2002-12-17 08:09:42 51°14.585 2°54.797 334.2 13.5 327 10.2
2002-12-17 08:09:46 51°14.598 2°54.783 333.8 13.6 326.8 10.1
2002-12-17 08:09:52 51°14.618 2°54.763 333.7 13.6 326.7 10.1
2002-12-17 08:09:57 51°14.634 2°54.746 333.5 13.7 326.5 10.1
2002-12-17 08:10:02 51°14.65 2°54.729 333.7 13.7 326.3 10
2002-12-17 08:10:06 51°14.662 2°54.715 333.5 13.7 326.1 10
2002-12-17 08:10:10 51°14.675 2°54.702 333.5 13.7 326.1 10
2002-12-17 08:10:17 51°14.697 2°54.678 333.3 13.8 326 10
2002-12-17 08:10:21 51°14.71 2°54.664 333.5 13.8 326.1 10
2002-12-17 08:10:27 51°14.728 2°54.644 334 13.9 326.1 10.1
2002-12-17 08:10:31 51°14.741 2°54.631 334 13.9 326.4 10.1
2002-12-17 08:10:37 51°14.76 2°54.611 334.2 13.9 326.4 10
2002-12-17 08:10:41 51°14.773 2°54.597 334.3 14 326.3 9.9
2002-12-17 08:10:47 51°14.792 2°54.576 334 14 326.1 9.9
2002-12-17 08:10:52 51°14.809 2°54.56 334.5 13.9 327 9.9
2002-12-17 08:10:57 51°14.826 2°54.543 335 13.8 327.5 9.9
2002-12-17 08:11:02 51°14.842 2°54.527 335.3 13.8 328.1 9.9
2002-12-17 08:11:06 51°14.855 2°54.514 335.7 13.8 328.1 9.9
2002-12-17 08:11:11 51°14.871 2°54.498 335.5 13.8 328.1 9.9
2002-12-17 08:11:17 51°14.891 2°54.478 335.5 13.8 327.7 9.7
2002-12-17 08:11:22 51°14.907 2°54.461 334.8 13.8 327.1 9.8
2002-12-17 08:11:26 51°14.92 2°54.448 334.7 13.9 326.6 9.5
2002-12-17 08:11:32 51°14.939 2°54.428 334.5 13.8 326.4 9.4
2002-12-17 08:11:37 51°14.954 2°54.411 335 13.7 326.4 9.4
2002-12-17 08:11:42 51°14.97 2°54.395 335 13.6 326.6 9.3
2002-12-17 08:11:46 51°14.983 2°54.382 335.2 13.7 326.9 9.2
2002-12-17 08:11:50 51°14.996 2°54.369 335.3 13.6 327.1 9.1
2002-12-17 08:11:57 51°15.017 2°54.346 335.5 13.6 327.1 9.1
2002-12-17 08:12:01 51°15.03 2°54.333 335.5 13.6 326.9 9.1
2002-12-17 08:12:06 51°15.046 2°54.316 335.7 13.6 326.8 9.1
2002-12-17 08:12:11 51°15.062 2°54.299 335.7 13.6 326.7 9.1
2002-12-17 08:12:17 51°15.081 2°54.28 335.8 13.6 326.9 9.2
2002-12-17 08:12:21 51°15.093 2°54.267 336.5 13.7 327.2 9.2
2002-12-17 08:12:26 51°15.109 2°54.251 336.5 13.7 327.6 9.3
2002-12-17 08:12:31 51°15.126 2°54.234 337 13.7 327.9 9.5
2002-12-17 08:12:37 51°15.145 2°54.215 337.2 13.8 327.9 9.6
2002-12-17 08:12:42 51°15.162 2°54.199 337.5 13.8 328.1 9.5
2002-12-17 08:12:46 51°15.175 2°54.186 337.5 13.9 328.3 9.6
2002-12-17 08:12:51 51°15.192 2°54.17 337.8 13.8 328.6 9.6
2002-12-17 08:12:55 51°15.205 2°54.158 337.8 13.8 328.8 9.7
2002-12-17 08:13:01 51°15.225 2°54.139 337.8 13.9 329 9.7
2002-12-17 08:13:06 51°15.241 2°54.123 337.5 13.9 328.9 9.8
2002-12-17 08:13:11 51°15.258 2°54.107 337.3 13.9 329 9.9
2002-12-17 08:13:17 51°15.277 2°54.088 337 13.8 328.4 9.9
2002-12-17 08:13:22 51°15.293 2°54.071 336.2 13.7 327.8 10
2002-12-17 08:13:26 51°15.306 2°54.058 336 13.7 327.3 10.1
2002-12-17 08:13:32 51°15.324 2°54.039 335.3 13.7 327.1 10.2
2002-12-17 08:13:37 51°15.34 2°54.022 335.3 13.8 326.9 10.2
2002-12-17 08:13:41 51°15.353 2°54.009 335.5 13.8 326.9 10.3
2002-12-17 08:13:47 51°15.373 2°53.989 335.5 13.8 326.9 10.4
2002-12-17 08:13:51 51°15.386 2°53.976 335.7 13.8 327.1 10.5
2002-12-17 08:13:57 51°15.405 2°53.956 335.8 13.7 327.2 10.5
2002-12-17 08:14:02 51°15.422 2°53.939 335.8 13.8 327.4 10.6
2002-12-17 08:14:06 51°15.434 2°53.926 336 13.8 327.5 10.7
2002-12-17 08:14:12 51°15.454 2°53.906 336.2 13.9 327.6 10.7
2002-12-17 08:14:17 51°15.47 2°53.89 336.2 13.9 327.7 10.8
2002-12-17 08:14:22 51°15.486 2°53.874 335.8 13.8 327.5 10.8
2002-12-17 08:14:26 51°15.499 2°53.861 335.8 13.8 327.5 10.9
2002-12-17 08:14:30 51°15.512 2°53.847 335.7 13.8 327.1 10.9
2002-12-17 08:14:37 51°15.534 2°53.823 335.3 13.8 326.7 11
2002-12-17 08:14:41 51°15.547 2°53.81 335.3 13.8 326.5 11.1
2002-12-17 08:14:47 51°15.566 2°53.79 335.5 13.7 326.3 11.2
2002-12-17 08:14:51 51°15.579 2°53.776 335.5 13.7 326.1 11.3
2002-12-17 08:14:57 51°15.598 2°53.756 335.3 13.7 326.2 11.4
2002-12-17 08:15:02 51°15.614 2°53.74 335.8 13.7 326.5 11.4
2002-12-17 08:15:06 51°15.626 2°53.727 336.2 13.7 326.9 11.5
2002-12-17 08:15:12 51°15.645 2°53.707 336.7 13.7 327.3 11.6
2002-12-17 08:15:17 51°15.662 2°53.691 336.7 13.8 327.8 11.6
2002-12-17 08:15:22 51°15.678 2°53.675 337 13.8 328.1 11.7
2002-12-17 08:15:27 51°15.695 2°53.66 337.5 13.8 328.6 11.7
2002-12-17 08:15:30 51°15.705 2°53.65 338.5 13.8 329.3 11.7
2002-12-17 08:15:37 51°15.728 2°53.629 339 13.8 330 11.9
2002-12-17 08:15:41 51°15.741 2°53.617 339.8 13.8 330.7 11.9
2002-12-17 08:15:47 51°15.761 2°53.601 340.5 13.8 331.6 11.9
2002-12-17 08:15:51 51°15.776 2°53.589 341.2 13.8 332.6 12
2002-12-17 08:15:57 51°15.796 2°53.573 341.3 13.8 332.9 12.1
2002-12-17 08:16:02 51°15.813 2°53.559 340.7 13.7 332.7 12.1
2002-12-17 08:16:06 51°15.826 2°53.547 340.5 13.8 332.2 12.1
2002-12-17 08:16:12 51°15.846 2°53.53 340.2 13.8 331.8 12.2
2002-12-17 08:16:17 51°15.863 2°53.515 339.7 13.7 331.4 12.3
2002-12-17 08:16:22 51°15.88 2°53.5 340 13.7 331.2 12.3
2002-12-17 08:16:26 51°15.894 2°53.489 339.8 13.8 331.3 12.4
2002-12-17 08:16:32 51°15.914 2°53.471 339.8 13.8 331.4 12.5
2002-12-17 08:16:37 51°15.931 2°53.456 339.8 13.8 331.4 12.5
2002-12-17 08:16:42 51°15.947 2°53.442 339.8 13.8 331.3 12.6
2002-12-17 08:16:45 51°15.957 2°53.433 340 13.8 331.4 12.6
2002-12-17 08:16:51 51°15.978 2°53.415 340.2 13.8 331.4 12.6
2002-12-17 08:16:57 51°15.998 2°53.398 340.2 13.8 331.4 12.5
2002-12-17 08:17:02 51°16.014 2°53.384 340 13.7 331.5 12.6
2002-12-17 08:17:06 51°16.028 2°53.372 340.2 13.7 331.4 12.7
2002-12-17 08:17:11 51°16.045 2°53.357 340 13.7 331.4 12.7
2002-12-17 08:17:14 51°16.055 2°53.348 340 13.7 331.2 12.8
2002-12-17 08:17:22 51°16.082 2°53.325 340 13.7 331.6 12.8
2002-12-17 08:17:26 51°16.095 2°53.315 340.3 13.7 332 12.8
2002-12-17 08:17:32 51°16.116 2°53.298 340.8 13.7 333 12.9
2002-12-17 08:17:37 51°16.132 2°53.285 341.2 13.5 333.2 12.4
2002-12-17 08:17:42 51°16.149 2°53.271 341.2 13.4 332.9 12.9
2002-12-17 08:17:46 51°16.162 2°53.261 340.5 13.4 332.9 12.9
2002-12-17 08:17:52 51°16.182 2°53.244 340.8 13.4 333.1 12.9
2002-12-17 08:17:57 51°16.198 2°53.23 340.7 13.4 333.4 13
2002-12-17 08:18:02 51°16.215 2°53.217 340.8 13.4 333.3 13
2002-12-17 08:18:06 51°16.228 2°53.206 340.7 13.5 333.6 13
2002-12-17 08:18:11 51°16.245 2°53.193 340.8 13.5 333.3 13.1
2002-12-17 08:18:17 51°16.265 2°53.176 339.8 13.5 332.8 13.1
2002-12-17 08:18:21 51°16.278 2°53.166 339.8 13.5 332.5 13
2002-12-17 08:18:27 51°16.298 2°53.149 339.7 13.5 332.5 13.1
2002-12-17 08:18:31 51°16.311 2°53.138 339.8 13.4 332.1 12.9
2002-12-17 08:18:37 51°16.331 2°53.121 339.3 13.4 331.8 12.9
2002-12-17 08:18:42 51°16.347 2°53.107 339.5 13.4 331.6 13
2002-12-17 08:18:46 51°16.361 2°53.095 339.3 13.5 331.6 13.1
2002-12-17 08:18:52 51°16.38 2°53.078 339.2 13.5 331.7 12.9
2002-12-17 08:18:57 51°16.397 2°53.065 339.5 13.5 332.3 13.1
2002-12-17 08:19:01 51°16.41 2°53.054 340 13.4 332.5 13
2002-12-17 08:19:06 51°16.427 2°53.04 339.8 13.4 332.3 13
2002-12-17 08:19:11 51°16.443 2°53.026 339.5 13.5 332.4 13
2002-12-17 08:19:17 51°16.463 2°53.01 339.7 13.5 332.3 13
2002-12-17 08:19:21 51°16.476 2°52.999 340 13.5 332.4 13
2002-12-17 08:19:27 51°16.496 2°52.982 339.7 13.4 332.1 12.8
2002-12-17 08:19:31 51°16.509 2°52.971 339.7 13.5 332 12.7
2002-12-17 08:19:37 51°16.529 2°52.954 339.5 13.5 332 12.7
2002-12-17 08:19:42 51°16.546 2°52.94 339.3 13.5 332.1 12.7
2002-12-17 08:19:46 51°16.56 2°52.929 339.5 13.5 332.2 12.6
2002-12-17 08:19:52 51°16.579 2°52.912 339.5 13.5 332.1 12.6
2002-12-17 08:19:57 51°16.596 2°52.898 339.2 13.5 331.8 12.4
2002-12-17 08:20:01 51°16.609 2°52.887 339.2 13.5 331.7 12.4
2002-12-17 08:20:05 51°16.622 2°52.875 339.3 13.5 331.8 12.2
2002-12-17 08:20:12 51°16.646 2°52.856 339.3 13.5 331.8 12.2
2002-12-17 08:20:17 51°16.662 2°52.842 339.7 13.5 332.1 12.1
2002-12-17 08:20:22 51°16.678 2°52.828 339.5 13.5 332.3 11.9
2002-12-17 08:20:27 51°16.695 2°52.814 339.5 13.5 332.2 11.7
2002-12-17 08:20:31 51°16.708 2°52.803 339.8 13.5 332.3 11.5
2002-12-17 08:20:37 51°16.728 2°52.786 340 13.5 332.2 11.5
2002-12-17 08:20:42 51°16.744 2°52.773 339.5 13.4 332 11.1
2002-12-17 08:20:46 51°16.757 2°52.761 339.7 13.3 331.7 10.7
2002-12-17 08:20:50 51°16.77 2°52.75 339.3 13.3 331.7 10.4
2002-12-17 08:20:57 51°16.793 2°52.731 339.5 13.2 331.6 10.5
2002-12-17 08:21:01 51°16.806 2°52.72 339.5 13.2 331.9 10.6
2002-12-17 08:21:06 51°16.822 2°52.706 339.7 13.2 332 10.6
2002-12-17 08:21:11 51°16.838 2°52.693 340 13.2 332.4 10.4
2002-12-17 08:21:17 51°16.857 2°52.676 340.2 13.3 332.5 10.4
2002-12-17 08:21:22 51°16.874 2°52.663 340.5 13.3 332.6 10.3
2002-12-17 08:21:25 51°16.884 2°52.655 340.3 13.3 332.5 10.4
2002-12-17 08:21:31 51°16.903 2°52.638 340.3 13.3 332.3 10.5
2002-12-17 08:21:37 51°16.923 2°52.622 340.3 13.3 332.2 10.7
2002-12-17 08:21:42 51°16.939 2°52.608 339.8 13.3 331.9 10.9
2002-12-17 08:21:46 51°16.952 2°52.597 340.2 13.3 332.1 10.9
2002-12-17 08:21:50 51°16.966 2°52.587 341 13.4 332.7 11
2002-12-17 08:21:57 51°16.989 2°52.568 341.3 13.4 333.2 10.9
2002-12-17 08:22:01 51°17.002 2°52.557 341.2 13.4 333 10.6
2002-12-17 08:22:05 51°17.015 2°52.546 341.2 13.4 333 10.5
2002-12-17 08:22:12 51°17.038 2°52.527 340.7 13.3 332.6 10.3
2002-12-17 08:22:17 51°17.054 2°52.513 340.5 13.3 332.2 10.5
2002-12-17 08:22:21 51°17.067 2°52.502 339.8 13.2 331.7 10.5
2002-12-17 08:22:27 51°17.087 2°52.485 340 13.3 331.6 10.6
2002-12-17 08:22:31 51°17.1 2°52.474 339.8 13.3 331.4 10.8
2002-12-17 08:22:37 51°17.12 2°52.457 339.5 13.4 331.4 10.7
2002-12-17 08:22:41 51°17.132 2°52.445 339.2 13.3 331 10.6
2002-12-17 08:22:47 51°17.151 2°52.428 339.2 13.3 330.7 10.7
2002-12-17 08:22:51 51°17.164 2°52.417 339 13.3 331.2 10.9
2002-12-17 08:22:57 51°17.184 2°52.4 339.5 13.3 331.4 11
2002-12-17 08:23:02 51°17.2 2°52.386 339.7 13.3 331.5 11
2002-12-17 08:23:06 51°17.213 2°52.375 339.5 13.3 331.3 11
2002-12-17 08:23:12 51°17.233 2°52.357 338.8 13.3 330.9 11.1
2002-12-17 08:23:17 51°17.248 2°52.342 338 13.3 329.9 11.3
2002-12-17 08:23:22 51°17.264 2°52.327 337.3 13.3 329.4 11.1
2002-12-17 08:23:27 51°17.28 2°52.311 336.7 13.4 328.4 11.4
2002-12-17 08:23:32 51°17.296 2°52.295 336 13.4 327.8 11.3
2002-12-17 08:23:37 51°17.311 2°52.279 335.2 13.3 327 11.3
2002-12-17 08:23:42 51°17.326 2°52.263 335.2 13.3 326.8 11.4
2002-12-17 08:23:46 51°17.339 2°52.25 334.5 13.3 326.3 11.2
2002-12-17 08:23:50 51°17.351 2°52.236 334.5 13.4 326.3 11.4
2002-12-17 08:23:57 51°17.373 2°52.213 334.2 13.4 326.2 11.4
2002-12-17 08:24:01 51°17.385 2°52.2 334.3 13.4 326.1 11.3
2002-12-17 08:24:06 51°17.4 2°52.184 334.2 13.4 325.9 11.4
2002-12-17 08:24:11 51°17.416 2°52.167 334.3 13.4 325.9 11.4
2002-12-17 08:24:17 51°17.434 2°52.147 334.8 13.4 326 11.3
2002-12-17 08:24:22 51°17.449 2°52.13 333.3 13.4 325.5 11.5
2002-12-17 08:24:26 51°17.461 2°52.115 331.3 13.4 323.5 11.3
2002-12-17 08:24:32 51°17.478 2°52.093 330.3 13.4 321.7 11.3
2002-12-17 08:24:37 51°17.492 2°52.073 327.8 13.4 319.9 11.4
2002-12-17 08:24:41 51°17.503 2°52.057 326 13.4 318 11.4
2002-12-17 08:24:47 51°17.519 2°52.031 324.5 13.4 316.2 11.6
2002-12-17 08:24:51 51°17.529 2°52.014 322.7 13.5 315 11.5
2002-12-17 08:24:57 51°17.544 2°51.988 320.8 13.5 312.8 11.4
2002-12-17 08:25:02 51°17.556 2°51.965 319.3 13.5 311.5 11.6
2002-12-17 08:25:06 51°17.566 2°51.947 318.7 13.5 310.2 11.6
2002-12-17 08:25:12 51°17.58 2°51.919 317.5 13.6 309.1 11.4
2002-12-17 08:25:17 51°17.592 2°51.895 317 13.5 308.8 11.3
2002-12-17 08:25:22 51°17.604 2°51.872 316.7 13.5 308.5 11.3
2002-12-17 08:25:26 51°17.613 2°51.854 316.5 13.5 308.2 11.3
2002-12-17 08:25:30 51°17.622 2°51.835 315.8 13.5 307.9 11.1
2002-12-17 08:25:37 51°17.637 2°51.801 315.3 13.5 307.3 11.1
2002-12-17 08:25:41 51°17.646 2°51.782 315.3 13.5 307 11
2002-12-17 08:25:47 51°17.66 2°51.755 315.5 13.4 307.2 11.1
2002-12-17 08:25:51 51°17.669 2°51.736 315.8 13.4 307.1 11
2002-12-17 08:25:57 51°17.682 2°51.706 315.8 13.5 306.9 11
2002-12-17 08:26:02 51°17.694 2°51.683 315.7 13.5 307.1 10.9
2002-12-17 08:26:06 51°17.702 2°51.664 316 13.4 307.1 11
2002-12-17 08:26:12 51°17.716 2°51.636 316.3 13.4 307.3 10.9
2002-12-17 08:26:17 51°17.727 2°51.612 315.3 13.3 307 11
2002-12-17 08:26:22 51°17.739 2°51.589 316.5 13.4 307.6 11
2002-12-17 08:26:26 51°17.748 2°51.57 316.2 13.4 307.6 11
2002-12-17 08:26:30 51°17.757 2°51.551 316.8 13.5 307.9 11
2002-12-17 08:26:37 51°17.773 2°51.519 316.8 13.4 308.2 11.2
2002-12-17 08:26:41 51°17.783 2°51.5 316.3 13.4 308.2 11.3
2002-12-17 08:26:47 51°17.797 2°51.472 316.7 13.5 308.7 11.2
2002-12-17 08:26:51 51°17.806 2°51.453 317 13.5 308.7 11.2
2002-12-17 08:26:57 51°17.82 2°51.425 317.2 13.6 308.7 11.4
2002-12-17 08:27:01 51°17.829 2°51.406 316.8 13.6 308.4 11.4
2002-12-17 08:27:05 51°17.839 2°51.388 317.2 13.6 308.6 11.5
2002-12-17 08:27:11 51°17.853 2°51.359 316.8 13.6 308.5 11.6
2002-12-17 08:27:17 51°17.868 2°51.331 317 13.6 308.4 11.5
2002-12-17 08:27:21 51°17.877 2°51.312 316.8 13.5 308.1 11.5
2002-12-17 08:27:27 51°17.891 2°51.284 316.8 13.6 308.2 11.5
2002-12-17 08:27:31 51°17.9 2°51.265 316.8 13.6 308.1 11.7
2002-12-17 08:27:37 51°17.914 2°51.236 317.7 13.5 308 11.9
2002-12-17 08:27:42 51°17.926 2°51.213 317 13.5 308 11.9
2002-12-17 08:27:46 51°17.936 2°51.194 316.8 13.5 307.9 12
2002-12-17 08:27:52 51°17.95 2°51.166 317.5 13.6 308.6 12.2
2002-12-17 08:27:57 51°17.961 2°51.142 317.5 13.6 308.8 12.6
2002-12-17 08:28:02 51°17.973 2°51.119 317.8 13.6 309.2 12.6
2002-12-17 08:28:06 51°17.983 2°51.1 317.8 13.6 309 12.7
2002-12-17 08:28:10 51°17.993 2°51.081 318 13.7 309 12.9
2002-12-17 08:28:17 51°18.009 2°51.048 317.8 13.7 309.1 12.6
2002-12-17 08:28:21 51°18.019 2°51.029 317.7 13.7 308.9 13.1
2002-12-17 08:28:27 51°18.033 2°51 317.8 13.7 308.7 13.3
2002-12-17 08:28:31 51°18.042 2°50.981 317.5 13.7 308.6 13.2
2002-12-17 08:28:37 51°18.057 2°50.953 317.8 13.7 308.4 13.3
2002-12-17 08:28:42 51°18.068 2°50.929 318 13.7 308.7 13.5
2002-12-17 08:28:46 51°18.078 2°50.911 318.2 13.7 308.9 13.6
2002-12-17 08:28:52 51°18.093 2°50.883 318 13.6 309.5 13.4
2002-12-17 08:28:57 51°18.105 2°50.86 318 13.6 309.4 13.6
2002-12-17 08:29:02 51°18.116 2°50.837 317.7 13.6 309.6 13.5
2002-12-17 08:29:06 51°18.126 2°50.817 317.8 13.6 308.9 13.3
2002-12-17 08:29:12 51°18.139 2°50.789 317.7 13.6 308 14
2002-12-17 08:29:17 51°18.151 2°50.765 316.2 13.6 307.2 14
2002-12-17 08:29:22 51°18.162 2°50.741 316.8 13.6 307.6 14
2002-12-17 08:29:27 51°18.174 2°50.717 317.2 13.7 307.5 14.2
2002-12-17 08:29:30 51°18.181 2°50.703 317.2 13.7 308 14.2
2002-12-17 08:29:37 51°18.197 2°50.67 317.3 13.7 307.8 14.3
2002-12-17 08:29:41 51°18.207 2°50.651 317.5 13.8 308.7 14.3
2002-12-17 08:29:47 51°18.221 2°50.622 318.3 13.8 309.1 14.5
2002-12-17 08:29:51 51°18.231 2°50.604 318.3 13.8 309.8 14.5
2002-12-17 08:29:57 51°18.246 2°50.576 318.7 13.8 310 14.5
2002-12-17 08:30:01 51°18.256 2°50.557 318.5 13.8 309.7 14.7
2002-12-17 08:30:05 51°18.266 2°50.537 318.5 13.7 309.4 15
2002-12-17 08:30:11 51°18.28 2°50.51 318.7 13.7 309.5 14.8
2002-12-17 08:30:17 51°18.295 2°50.482 318.2 13.7 309.4 15
2002-12-17 08:30:21 51°18.305 2°50.463 319 13.7 309.6 14.5
2002-12-17 08:30:26 51°18.317 2°50.439 318.5 13.8 309.3 15.1
2002-12-17 08:30:31 51°18.329 2°50.416 318.5 13.8 309.4 15.2
2002-12-17 08:30:37 51°18.344 2°50.387 318 13.8 308.7 15.1
2002-12-17 08:30:41 51°18.354 2°50.368 318.2 13.8 308.5 15.1
2002-12-17 08:30:46 51°18.365 2°50.343 318.3 13.8 308.1 15.1
2002-12-17 08:30:51 51°18.377 2°50.319 317.8 13.8 308.4 15.2
2002-12-17 08:30:57 51°18.392 2°50.291 317.7 13.8 308.4 15.2
2002-12-17 08:31:02 51°18.403 2°50.267 316.8 13.9 307.9 15.4
2002-12-17 08:31:07 51°18.414 2°50.242 316.3 13.9 307.3 15.2
2002-12-17 08:31:10 51°18.421 2°50.227 316 13.9 306.8 15.2
2002-12-17 08:31:17 51°18.437 2°50.193 316 13.9 306.5 15.3
2002-12-17 08:31:21 51°18.446 2°50.173 315.3 13.9 305.9 15.3
2002-12-17 08:31:27 51°18.459 2°50.142 314 13.9 305.2 15.2
2002-12-17 08:31:31 51°18.468 2°50.122 312.8 13.9 304.3 15.1
2002-12-17 08:31:37 51°18.481 2°50.091 312.5 13.9 303.9 15.1
2002-12-17 08:31:42 51°18.491 2°50.066 312.3 13.8 303.5 15.2
2002-12-17 08:31:46 51°18.499 2°50.045 311.8 13.8 303.3 14.8
2002-12-17 08:31:52 51°18.512 2°50.014 311.2 13.8 302.8 14.5
2002-12-17 08:31:57 51°18.522 2°49.989 310.7 13.7 302.4 14.7
2002-12-17 08:32:02 51°18.532 2°49.963 310.5 13.7 301.9 14.3
2002-12-17 08:32:06 51°18.54 2°49.942 310.2 13.7 301.4 14.5
2002-12-17 08:32:10 51°18.548 2°49.922 309.5 13.7 301.5 14.5
2002-12-17 08:32:17 51°18.562 2°49.886 309.7 13.7 301.7 14.3
2002-12-17 08:32:21 51°18.57 2°49.865 310.3 13.7 301.7 14.4
2002-12-17 08:32:27 51°18.583 2°49.835 310.7 13.7 302.2 14
2002-12-17 08:32:31 51°18.591 2°49.814 310 13.7 301.8 14.2
2002-12-17 08:32:37 51°18.603 2°49.784 310 13.7 302.4 13.8
2002-12-17 08:32:41 51°18.611 2°49.763 309.8 13.7 301.9 13.2
2002-12-17 08:32:47 51°18.623 2°49.733 310.2 13.6 302.2 13.1
2002-12-17 08:32:51 51°18.631 2°49.712 309.8 13.6 302 13.2
2002-12-17 08:32:57 51°18.643 2°49.682 310.2 13.6 302.1 13.3
2002-12-17 08:33:02 51°18.653 2°49.656 310 13.6 302.5 13.1
2002-12-17 08:33:06 51°18.661 2°49.636 310 13.6 302.4 12.9
2002-12-17 08:33:12 51°18.673 2°49.606 310.5 13.6 302.9 12.4
2002-12-17 08:33:17 51°18.683 2°49.581 310.3 13.5 302.7 11.9
2002-12-17 08:33:22 51°18.694 2°49.556 310.3 13.5 302.8 12.1
2002-12-17 08:33:27 51°18.704 2°49.531 310.5 13.4 302.7 12
2002-12-17 08:33:30 51°18.71 2°49.515 309.8 13.4 302.1 11.8
2002-12-17 08:33:37 51°18.724 2°49.48 310.5 13.5 302.7 11.6
2002-12-17 08:33:41 51°18.732 2°49.46 309.8 13.5 302.7 11.6
2002-12-17 08:33:47 51°18.745 2°49.43 310.7 13.5 303.4 11.7
2002-12-17 08:33:51 51°18.753 2°49.41 310 13.5 302.8 11.5
2002-12-17 08:33:57 51°18.765 2°49.38 310.5 13.5 303 11.3
2002-12-17 08:34:01 51°18.773 2°49.36 309.8 13.6 302.5 11.5
2002-12-17 08:34:05 51°18.782 2°49.34 310.5 13.6 303.1 11.8
2002-12-17 08:34:11 51°18.794 2°49.31 310.7 13.6 302.8 12.1
2002-12-17 08:34:17 51°18.807 2°49.279 310.8 13.6 303.4 12.4
2002-12-17 08:34:21 51°18.815 2°49.259 310.5 13.7 303.2 12.3
2002-12-17 08:34:26 51°18.826 2°49.234 310.8 13.7 303.7 12
2002-12-17 08:34:31 51°18.836 2°49.209 311 13.7 303.7 12.1
2002-12-17 08:34:37 51°18.849 2°49.179 311.5 13.6 304.1 12.4
2002-12-17 08:34:41 51°18.857 2°49.159 311.3 13.6 304 12
2002-12-17 08:34:46 51°18.867 2°49.134 310.7 13.7 303.5 12.2
2002-12-17 08:34:51 51°18.878 2°49.109 310.5 13.7 303.1 12.6
2002-12-17 08:34:57 51°18.89 2°49.078 310 13.7 303.1 12.7
2002-12-17 08:35:02 51°18.9 2°49.053 310.2 13.7 302.8 12.8
2002-12-17 08:35:06 51°18.909 2°49.032 310.8 13.7 303.1 12.9
2002-12-17 08:35:10 51°18.917 2°49.012 310.5 13.8 303 13
2002-12-17 08:35:17 51°18.932 2°48.976 310.3 13.8 303.2 13
2002-12-17 08:35:21 51°18.94 2°48.955 310.2 13.8 302.6 13.2
2002-12-17 08:35:25 51°18.948 2°48.935 310.2 13.8 302.8 13.6
2002-12-17 08:35:32 51°18.963 2°48.9 310.8 13.8 303.1 14
2002-12-17 08:35:37 51°18.973 2°48.873 311.3 13.8 303.3 14.2
2002-12-17 08:35:41 51°18.982 2°48.853 311.5 13.9 303.7 14.6
2002-12-17 08:35:45 51°18.99 2°48.832 311.7 13.9 303.9 14.9
2002-12-17 08:35:51 51°19.003 2°48.801 311.7 13.9 303.6 15.3
2002-12-17 08:35:57 51°19.016 2°48.771 311.5 13.9 303.8 15.4
2002-12-17 08:36:02 51°19.027 2°48.745 311.3 14 303.2 15.5
2002-12-17 08:36:06 51°19.035 2°48.725 311.7 14 303.5 15.5
2002-12-17 08:36:12 51°19.047 2°48.694 311.3 13.9 302.7 15.7
2002-12-17 08:36:17 51°19.058 2°48.668 310.8 13.9 302.3 15.8
2002-12-17 08:36:21 51°19.067 2°48.647 310.8 13.9 302.7 15.9
2002-12-17 08:36:26 51°19.077 2°48.621 310.8 13.9 302.5 16
2002-12-17 08:36:32 51°19.09 2°48.591 310.7 13.9 302.4 16.2
2002-12-17 08:36:37 51°19.1 2°48.564 310.8 13.9 302.4 16.4
2002-12-17 08:36:41 51°19.108 2°48.544 310.5 13.9 302.3 16.7
2002-12-17 08:36:47 51°19.121 2°48.513 310.8 13.9 302.8 17
2002-12-17 08:36:51 51°19.129 2°48.492 310.8 14 302.7 17.2
2002-12-17 08:36:57 51°19.142 2°48.46 310.7 14 302.9 17.5
2002-12-17 08:37:01 51°19.15 2°48.44 310.7 14 302.6 17.5
2002-12-17 08:37:06 51°19.161 2°48.414 311 13.9 302.5 17.9
2002-12-17 08:37:12 51°19.173 2°48.383 311 13.9 302.4 18.1
2002-12-17 08:37:17 51°19.183 2°48.357 311 13.9 302.3 18.3
2002-12-17 08:37:22 51°19.193 2°48.331 311 13.9 302.3 18.4
2002-12-17 08:37:26 51°19.202 2°48.31 310.7 14 302.3 18.6
2002-12-17 08:37:31 51°19.212 2°48.284 310.7 14 302.5 18.9
2002-12-17 08:37:37 51°19.225 2°48.252 310.8 14 302.7 18.8
2002-12-17 08:37:41 51°19.234 2°48.231 310.8 14.1 302.8 19.1
2002-12-17 08:37:46 51°19.244 2°48.205 311.2 14.1 302.8 19.2
2002-12-17 08:37:51 51°19.255 2°48.179 311.2 14.1 302.9 19.7
2002-12-17 08:37:57 51°19.268 2°48.148 311.5 14.1 302.9 19.9
2002-12-17 08:38:01 51°19.277 2°48.127 311.7 14.1 303.2 20
2002-12-17 08:38:06 51°19.287 2°48.101 311.5 14.1 302.8 20
2002-12-17 08:38:11 51°19.298 2°48.074 311.2 14.1 302.9 19.9
2002-12-17 08:38:17 51°19.311 2°48.044 311.5 14.1 302.8 20.5
2002-12-17 08:38:21 51°19.319 2°48.023 311.2 14.1 302.8 20.7
2002-12-17 08:38:26 51°19.33 2°47.997 311.3 14.1 303 20.7
2002-12-17 08:38:31 51°19.341 2°47.97 311 14.1 302.8 21.1
2002-12-17 08:38:37 51°19.354 2°47.939 311.3 14.2 302.9 21.4
2002-12-17 08:38:41 51°19.362 2°47.917 311 14.1 302.3 21.5
2002-12-17 08:38:46 51°19.373 2°47.892 311.7 14.1 302.7 21.5
2002-12-17 08:38:51 51°19.383 2°47.865 310.7 14.1 302.5 21.8
2002-12-17 08:38:57 51°19.396 2°47.833 311 14.2 302.6 21.8
2002-12-17 08:39:02 51°19.406 2°47.807 310.8 14.1 302.3 22
2002-12-17 08:39:07 51°19.417 2°47.78 311.3 14.1 302.1 22.1
2002-12-17 08:39:10 51°19.423 2°47.764 310.3 14.1 301.6 22.2
2002-12-17 08:39:17 51°19.437 2°47.728 310.8 14 301.8 22.3
2002-12-17 08:39:21 51°19.445 2°47.706 311.3 14 302 22.5
2002-12-17 08:39:27 51°19.458 2°47.675 311.3 14 302.5 22.6
2002-12-17 08:39:31 51°19.466 2°47.654 310.8 14 302.1 22.6
2002-12-17 08:39:37 51°19.479 2°47.623 310.5 14 302.2 22.9
2002-12-17 08:39:42 51°19.489 2°47.597 310.8 14 302.5 22.9
2002-12-17 08:39:46 51°19.498 2°47.576 311.2 14.1 302.4 22.9
2002-12-17 08:39:52 51°19.511 2°47.544 311.2 14.1 302.8 22.9
2002-12-17 08:39:57 51°19.521 2°47.517 311 14.2 302.1 23
2002-12-17 08:40:02 51°19.531 2°47.49 311.2 14.1 302.4 23
2002-12-17 08:40:05 51°19.538 2°47.474 310.7 14.1 302.1 22.9
2002-12-17 08:40:12 51°19.552 2°47.437 310.7 14.1 301.9 22.9
2002-12-17 08:40:17 51°19.563 2°47.411 310.3 14.1 301.6 22.8
2002-12-17 08:40:22 51°19.573 2°47.384 310.3 14.1 302.1 22.6
2002-12-17 08:40:27 51°19.584 2°47.357 310.2 14.2 302.2 22.8
2002-12-17 08:40:31 51°19.592 2°47.336 310.2 14.2 302 22.5
2002-12-17 08:40:37 51°19.605 2°47.303 310.5 14.2 302 22.8
2002-12-17 08:40:42 51°19.615 2°47.278 310.2 14.2 301.9 22.7
2002-12-17 08:40:46 51°19.625 2°47.256 310.8 14.2 302.4 22.7
2002-12-17 08:40:50 51°19.634 2°47.234 311.2 14.3 302.5 22.8
2002-12-17 08:40:57 51°19.649 2°47.197 311 14.3 302.8 22.5
2002-12-17 08:41:01 51°19.657 2°47.176 311.2 14.3 302.5 22.6
2002-12-17 08:41:05 51°19.666 2°47.154 311.3 14.3 302.8 22.7
2002-12-17 08:41:12 51°19.68 2°47.117 311.3 14.3 302.8 22.6
2002-12-17 08:41:17 51°19.691 2°47.09 311.8 14.3 302.5 22.7
2002-12-17 08:41:22 51°19.701 2°47.063 310.7 14.3 302.3 22.5
2002-12-17 08:41:26 51°19.71 2°47.042 311.2 14.3 303 22.4
2002-12-17 08:41:32 51°19.723 2°47.01 310.7 14.3 302.5 22.3
2002-12-17 08:41:37 51°19.734 2°46.984 311.2 14.3 303.2 22.2
2002-12-17 08:41:41 51°19.743 2°46.962 310.7 14.4 302.6 22
2002-12-17 08:41:45 51°19.751 2°46.941 311.2 14.4 303.2 21.8
2002-12-17 08:41:51 51°19.764 2°46.909 311.8 14.4 303 21.5
2002-12-17 08:41:57 51°19.777 2°46.877 311.5 14.3 303 21.7
2002-12-17 08:42:01 51°19.786 2°46.855 311.2 14.4 303.1 21.4
2002-12-17 08:42:06 51°19.797 2°46.828 311 14.4 302.9 21
2002-12-17 08:42:12 51°19.809 2°46.796 311 14.4 302.6 21
2002-12-17 08:42:17 51°19.82 2°46.769 311 14.3 302.5 20.3
2002-12-17 08:42:22 51°19.83 2°46.743 310.2 14.4 301.7 20.2
2002-12-17 08:42:26 51°19.839 2°46.722 310.3 14.4 302.1 19.8
2002-12-17 08:42:32 51°19.85 2°46.689 309.7 14.3 300.8 19.5
2002-12-17 08:42:37 51°19.86 2°46.662 309.2 14.3 300.9 18.9
2002-12-17 08:42:41 51°19.868 2°46.639 309 14.3 300.2 18.4
2002-12-17 08:42:46 51°19.879 2°46.613 309.2 14.2 300.4 19.4
2002-12-17 08:42:51 51°19.888 2°46.586 309.2 14.2 300.5 19
2002-12-17 08:42:57 51°19.9 2°46.553 309 14.2 300.7 17.8
2002-12-17 08:43:02 51°19.911 2°46.526 308.8 14.1 300.1 18
2002-12-17 08:43:06 51°19.918 2°46.504 307.8 14.1 299.6 17.7
2002-12-17 08:43:12 51°19.93 2°46.472 308.3 14.2 300.2 16.3
2002-12-17 08:43:17 51°19.94 2°46.445 308.8 14.1 299.9 16.8
2002-12-17 08:43:21 51°19.948 2°46.423 308.8 14.1 300 15.3
2002-12-17 08:43:25 51°19.956 2°46.402 308.8 13.9 299.9 17.1
2002-12-17 08:43:31 51°19.967 2°46.37 307.3 14 299.2 17.1
2002-12-17 08:43:37 51°19.978 2°46.337 306.5 14.1 298.6 16.8
2002-12-17 08:43:42 51°19.987 2°46.309 306.7 14.1 298.3 16.6
2002-12-17 08:43:46 51°19.994 2°46.286 305.8 14.1 298.2 15.2
2002-12-17 08:43:50 51°20.001 2°46.263 305.8 14.2 297.6 15.1
2002-12-17 08:43:57 51°20.014 2°46.226 306.2 14.1 297.7 15.5
2002-12-17 08:44:02 51°20.022 2°46.198 305.3 14.1 296.9 13.7
2002-12-17 08:44:06 51°20.029 2°46.175 305.5 14 296.3 15.5
2002-12-17 08:44:11 51°20.038 2°46.148 304.7 14 296.5 13.7
2002-12-17 08:44:17 51°20.049 2°46.114 304.2 14 296.5 15.2
2002-12-17 08:44:22 51°20.058 2°46.086 304 14 296.3 15.6
2002-12-17 08:44:26 51°20.065 2°46.065 305.3 14 297 15.4
2002-12-17 08:44:32 51°20.076 2°46.032 305.8 14 298.2 16.6
2002-12-17 08:44:37 51°20.085 2°46.005 305.7 14 298.1 17.4
2002-12-17 08:44:42 51°20.094 2°45.977 305.2 14 298.1 15.2
2002-12-17 08:44:46 51°20.1 2°45.954 304 14 296.5 15.7
2002-12-17 08:44:50 51°20.107 2°45.933 303.7 14 296.8 15.8
2002-12-17 08:44:57 51°20.12 2°45.894 303.8 13.9 296.8 15.1
2002-12-17 08:45:01 51°20.128 2°45.872 303.7 14 296.7 15.9
2002-12-17 08:45:05 51°20.135 2°45.85 303.8 14 297.4 16.8
2002-12-17 08:45:10 51°20.143 2°45.821 302.5 13.9 295.5 17.4
2002-12-17 08:45:17 51°20.154 2°45.782 301.7 14 294.3 17.5
2002-12-17 08:45:21 51°20.16 2°45.759 299 14 293.2 17.9
2002-12-17 08:45:27 51°20.169 2°45.725 298.3 14 291.8 18.3
2002-12-17 08:45:31 51°20.175 2°45.702 299.5 14.1 292.5 14.5
2002-12-17 08:45:37 51°20.183 2°45.668 298 13.9 291.5 18
2002-12-17 08:45:42 51°20.189 2°45.638 295.2 14 289.2 20.3
2002-12-17 08:45:46 51°20.194 2°45.615 296 14 289.6 21.3
2002-12-17 08:45:52 51°20.203 2°45.58 297 14 290.6 21.9
2002-12-17 08:45:57 51°20.209 2°45.551 297 14 290.5 22.5
2002-12-17 08:46:02 51°20.216 2°45.522 297.2 14 291.2 22.6
2002-12-17 08:46:06 51°20.221 2°45.498 294.2 13.9 289.6 23
2002-12-17 08:46:12 51°20.226 2°45.463 291.2 13.9 285.3 23
2002-12-17 08:46:17 51°20.232 2°45.433 291.7 13.9 285.7 23.4
2002-12-17 08:46:22 51°20.238 2°45.404 292.3 13.9 286.2 23.3
2002-12-17 08:46:26 51°20.243 2°45.381 293.3 13.8 288.2 23.3
2002-12-17 08:46:32 51°20.25 2°45.346 295.2 13.8 288.1 24
2002-12-17 08:46:37 51°20.257 2°45.318 297 13.9 291.1 23.8
2002-12-17 08:46:42 51°20.263 2°45.289 296.3 13.8 290.2 24.3
2002-12-17 08:46:47 51°20.27 2°45.261 296.8 13.8 291.3 23.8
2002-12-17 08:46:50 51°20.274 2°45.243 294.3 13.8 289 24.1
2002-12-17 08:46:57 51°20.283 2°45.202 293.2 13.8 288.4 23.9
2002-12-17 08:47:01 51°20.286 2°45.179 294.2 13.8 287.6 24.9
2002-12-17 08:47:06 51°20.294 2°45.15 295 13.8 288.9 25.2
2002-12-17 08:47:11 51°20.298 2°45.121 293 13.8 287.2 25.1
2002-12-17 08:47:17 51°20.306 2°45.086 292 13.9 287.3 25.2
2002-12-17 08:47:22 51°20.312 2°45.057 292.8 13.9 287.7 25.2
2002-12-17 08:47:26 51°20.318 2°45.035 295.2 13.8 290.2 25.4
2002-12-17 08:47:30 51°20.325 2°45.012 301 13.7 295 25.6
2002-12-17 08:47:37 51°20.339 2°44.977 307 13.6 299.4 25.9
2002-12-17 08:47:42 51°20.349 2°44.952 309.8 13.6 302.9 25.9
2002-12-17 08:47:45 51°20.356 2°44.938 311 13.6 305.2 25.9
2002-12-17 08:47:51 51°20.369 2°44.907 309.2 13.6 303.9 25.7
2002-12-17 08:47:57 51°20.381 2°44.877 308.7 13.5 303.1 26.1
2002-12-17 08:48:01 51°20.388 2°44.857 309.2 13.2 302.1 24.4
2002-12-17 08:48:06 51°20.398 2°44.833 307.8 12.9 301.9 25.3
2002-12-17 08:48:11 51°20.406 2°44.81 306.7 12.5 300.7 26
2002-12-17 08:48:17 51°20.416 2°44.785 307.5 11.8 301.2 26.2
2002-12-17 08:48:21 51°20.423 2°44.769 308.7 11 301.8 26.8
2002-12-17 08:48:27 51°20.431 2°44.747 309.2 10.4 301.8 26.4
2002-12-17 08:48:31 51°20.437 2°44.733 308.2 9.7 301.9 26.4
2002-12-17 08:48:37 51°20.445 2°44.713 308.8 9.2 301.9 26.5
2002-12-17 08:48:42 51°20.451 2°44.697 308.2 8.6 301.3 27
2002-12-17 08:48:46 51°20.455 2°44.685 307.2 8.1 300.5 26.8
2002-12-17 08:48:52 51°20.462 2°44.668 306.3 7.6 299.9 26.7
2002-12-17 08:48:57 51°20.466 2°44.655 305.7 7.3 299.4 26.8
2002-12-17 08:49:02 51°20.47 2°44.642 304.8 6.9 297.8 27.3
2002-12-17 08:49:06 51°20.474 2°44.632 304 6.6 296.9 27.5
2002-12-17 08:49:10 51°20.477 2°44.622 302.5 6.2 296 27.3
2002-12-17 08:49:17 51°20.481 2°44.606 301.5 5.9 295 27.6
2002-12-17 08:49:21 51°20.484 2°44.597 301 5.7 294.5 27.6
2002-12-17 08:49:27 51°20.488 2°44.583 301 5.6 293.2 27.9
2002-12-17 08:49:31 51°20.49 2°44.575 301 5.4 293.9 28
2002-12-17 08:49:37 51°20.494 2°44.564 300.8 5.2 293.8 28.1
2002-12-17 08:49:41 51°20.496 2°44.556 300.5 5 293.7 27.9
2002-12-17 08:49:47 51°20.499 2°44.544 301.3 4.8 293.4 28.1
2002-12-17 08:49:51 51°20.501 2°44.537 302 4.7 292.5 28.2
2002-12-17 08:49:57 51°20.504 2°44.526 302.2 4.5 292.6 28.2
2002-12-17 08:50:01 51°20.506 2°44.519 302.5 4.4 293.4 28.2
2002-12-17 08:50:06 51°20.509 2°44.51 303.8 4.3 294.8 28.1
2002-12-17 08:50:12 51°20.512 2°44.501 305.2 4.2 294.3 28.4
2002-12-17 08:50:17 51°20.514 2°44.492 304.7 4.2 292.6 27.8
2002-12-17 08:50:22 51°20.516 2°44.484 303.7 4.2 292 28.2
2002-12-17 08:50:26 51°20.517 2°44.476 302.8 4.2 291.2 28.3
2002-12-17 08:50:32 51°20.52 2°44.466 301.3 4.2 290.6 28.4
2002-12-17 08:50:37 51°20.522 2°44.457 299.7 4.2 290.4 27.9
2002-12-17 08:50:42 51°20.524 2°44.448 298 4.2 290.3 28.6
2002-12-17 08:50:47 51°20.526 2°44.44 296.3 4.2 289.6 28.8
2002-12-17 08:50:51 51°20.528 2°44.432 295 4.3 288.8 28.8
2002-12-17 08:50:57 51°20.53 2°44.421 294.5 4.3 285.9 28.7
2002-12-17 08:51:01 51°20.531 2°44.414 293.2 4.4 284.2 28.8
2002-12-17 08:51:06 51°20.532 2°44.404 292 4.4 283.2 28.8
2002-12-17 08:51:12 51°20.534 2°44.393 291.8 4.4 284.1 28.9
2002-12-17 08:51:17 51°20.535 2°44.384 291.3 4.4 283.8 28.9
2002-12-17 08:51:21 51°20.537 2°44.376 290.5 4.3 283.8 29
2002-12-17 08:51:26 51°20.538 2°44.367 290.2 4.3 283 29
2002-12-17 08:51:31 51°20.538 2°44.358 290.2 4.3 281.4 29.2
2002-12-17 08:51:37 51°20.539 2°44.346 289.3 4.3 280.1 29
2002-12-17 08:51:41 51°20.54 2°44.339 288.2 4.3 279.5 29
2002-12-17 08:51:45 51°20.541 2°44.331 288.2 4.3 279.4 29
2002-12-17 08:51:51 51°20.542 2°44.32 287.7 4.3 279.1 29
2002-12-17 08:51:57 51°20.543 2°44.308 287.7 4.4 278.9 28.9
2002-12-17 08:52:02 51°20.544 2°44.298 287.5 4.4 279.5 29.2
2002-12-17 08:52:06 51°20.545 2°44.291 286.8 4.5 279.6 29.2
2002-12-17 08:52:11 51°20.546 2°44.281 286.2 4.5 278.7 29.3
2002-12-17 08:52:17 51°20.547 2°44.269 286.2 4.5 278.4 29.1
2002-12-17 08:52:22 51°20.548 2°44.259 286 4.5 278 29.2
2002-12-17 08:52:26 51°20.548 2°44.252 285.2 4.5 278 29.1
2002-12-17 08:52:30 51°20.549 2°44.244 284.5 4.5 276.8 29.1
2002-12-17 08:52:37 51°20.55 2°44.229 284.7 4.6 276.7 29.2
2002-12-17 08:52:41 51°20.551 2°44.221 284.8 4.7 277 28.9
2002-12-17 08:52:45 51°20.552 2°44.211 285.3 5.1 278.4 29
2002-12-17 08:52:51 51°20.553 2°44.195 286.8 6 280.5 29
2002-12-17 08:52:57 51°20.556 2°44.176 289.8 6.7 282.3 28.9
2002-12-17 08:53:02 51°20.56 2°44.159 294.8 7.6 286.3 28.6
2002-12-17 08:53:06 51°20.564 2°44.145 298 8.4 291.2 28.7
2002-12-17 08:53:12 51°20.573 2°44.123 304.3 9.3 297 28.8
2002-12-17 08:53:17 51°20.582 2°44.104 310.2 10.1 302.8 28.8
2002-12-17 08:53:21 51°20.591 2°44.09 317.3 10.7 309.6 28.9
2002-12-17 08:53:26 51°20.604 2°44.073 323.7 11.3 316.8 29.1
2002-12-17 08:53:31 51°20.618 2°44.059 330.7 11.8 324.7 29
2002-12-17 08:53:37 51°20.637 2°44.045 337 12.1 330.3 29
2002-12-17 08:53:41 51°20.65 2°44.038 344 12.4 338.5 28.9
2002-12-17 08:53:47 51°20.671 2°44.031 350 12.6 344 28.9
2002-12-17 08:53:51 51°20.685 2°44.027 355.5 12.9 349.6 28.7
2002-12-17 08:53:57 51°20.707 2°44.024 358.8 13 352.7 28.9
2002-12-17 08:54:02 51°20.725 2°44.022 0.5 13.1 354.8 28.8
2002-12-17 08:54:05 51°20.736 2°44.02 0.2 13.1 355.5 28.6
2002-12-17 08:54:11 51°20.758 2°44.016 359.3 13.2 354.3 28.4
2002-12-17 08:54:17 51°20.78 2°44.01 356.7 13.2 352.4 28
2002-12-17 08:54:22 51°20.797 2°44.003 351.8 13.3 348.3 28.1
2002-12-17 08:54:26 51°20.811 2°43.995 348.7 13.3 344.2 28.1
2002-12-17 08:54:32 51°20.833 2°43.983 346.5 13.4 341.1 27.9
2002-12-17 08:54:37 51°20.85 2°43.974 346 13.4 340.7 27.6
2002-12-17 08:54:42 51°20.867 2°43.964 345.7 13.4 340.4 26.9
2002-12-17 08:54:46 51°20.881 2°43.956 346.2 13.3 340.4 26.9
2002-12-17 08:54:50 51°20.895 2°43.948 345.3 13.3 340.6 26.6
2002-12-17 08:54:57 51°20.919 2°43.934 345.5 13.2 340 26.5
2002-12-17 08:55:01 51°20.933 2°43.926 345.5 13.2 340.2 26.5
2002-12-17 08:55:05 51°20.947 2°43.917 345 13.2 339.5 26
2002-12-17 08:55:10 51°20.964 2°43.908 345 13.3 339.9 26.3
2002-12-17 08:55:17 51°20.988 2°43.893 345 13.4 339.6 25.9
2002-12-17 08:55:22 51°21.006 2°43.883 345 13.4 339.9 26
2002-12-17 08:55:27 51°21.024 2°43.872 345.2 13.5 339.8 25.9
2002-12-17 08:55:31 51°21.038 2°43.865 345.3 13.6 340.2 25.2
2002-12-17 08:55:37 51°21.06 2°43.852 345.2 13.7 340.2 25.2
2002-12-17 08:55:41 51°21.074 2°43.844 345.3 13.6 339.9 24.9
2002-12-17 08:55:47 51°21.095 2°43.831 345.2 13.6 339.8 24.7
2002-12-17 08:55:51 51°21.109 2°43.823 345.3 13.6 339.8 24.4
2002-12-17 08:55:57 51°21.13 2°43.81 345 13.5 339.1 -999
2002-12-17 08:56:02 51°21.147 2°43.799 344 13.4 338.4 24.6
2002-12-17 08:56:05 51°21.157 2°43.792 343.5 13.4 338.2 24.5
2002-12-17 08:56:11 51°21.178 2°43.779 343.2 13.4 338.2 24.6
2002-12-17 08:56:17 51°21.199 2°43.765 343.5 13.4 337.7 24.7
2002-12-17 08:56:21 51°21.212 2°43.757 343 13.4 337.6 24.6
2002-12-17 08:56:27 51°21.233 2°43.743 343.2 13.4 337.3 24.5
2002-12-17 08:56:31 51°21.247 2°43.735 343.8 13.4 338.4 24.5
2002-12-17 08:56:37 51°21.267 2°43.721 343.7 13.4 338.4 24.1
2002-12-17 08:56:42 51°21.285 2°43.71 344 13.5 338.6 24
2002-12-17 08:56:46 51°21.299 2°43.702 343.8 13.4 338.8 23.9
2002-12-17 08:56:52 51°21.32 2°43.689 344 13.5 338.9 23.2
2002-12-17 08:56:57 51°21.337 2°43.679 344.3 13.5 339 23.6
2002-12-17 08:57:02 51°21.355 2°43.667 344 13.5 338.7 23.6
2002-12-17 08:57:06 51°21.369 2°43.659 344.2 13.5 338.6 23.2
2002-12-17 08:57:10 51°21.383 2°43.65 343.8 13.4 338.8 23.1
2002-12-17 08:57:17 51°21.407 2°43.635 343.8 13.5 339 23
2002-12-17 08:57:21 51°21.421 2°43.627 344.2 13.4 338.8 23.1
2002-12-17 08:57:27 51°21.442 2°43.614 343.8 13.5 338.5 23.5
2002-12-17 08:57:31 51°21.456 2°43.605 343.3 13.5 338.3 23.4
2002-12-17 08:57:37 51°21.477 2°43.591 343.8 13.5 338.2 23.4
2002-12-17 08:57:41 51°21.49 2°43.582 343.3 13.5 337.8 23.7
2002-12-17 08:57:47 51°21.512 2°43.57 343.5 13.5 338.5 22.9
2002-12-17 08:57:51 51°21.525 2°43.56 344.2 13.4 337.9 22
2002-12-17 08:57:57 51°21.545 2°43.547 343.7 13.3 337.8 22.5
2002-12-17 08:58:02 51°21.562 2°43.537 343.8 13.2 338.7 22
2002-12-17 08:58:06 51°21.576 2°43.529 344.3 13.2 339.1 22
2002-12-17 08:58:11 51°21.593 2°43.519 344.7 13.2 339.8 22.1
2002-12-17 08:58:17 51°21.614 2°43.506 344.5 13.3 339.5 22.5
2002-12-17 08:58:21 51°21.628 2°43.498 344.3 13.3 339.7 22.7
2002-12-17 08:58:27 51°21.648 2°43.485 344.5 13.3 339.3 22.9
2002-12-17 08:58:31 51°21.662 2°43.476 343.8 13.1 338.4 22.7
2002-12-17 08:58:37 51°21.682 2°43.464 344.2 13.1 338.1 -999
2002-12-17 08:58:42 51°21.699 2°43.453 344 13.2 338.1 21.1
2002-12-17 08:58:45 51°21.709 2°43.446 343.8 13.2 338.5 20.8
2002-12-17 08:58:51 51°21.729 2°43.434 344.3 13.1 338.8 23.1
2002-12-17 08:58:57 51°21.75 2°43.421 344.2 13.2 339 24
2002-12-17 08:59:01 51°21.764 2°43.413 344.2 13.2 338.8 24.2
2002-12-17 08:59:05 51°21.778 2°43.404 344 13.3 339.2 24.2
2002-12-17 08:59:11 51°21.798 2°43.392 345.2 13.2 339.4 24.3
2002-12-17 08:59:17 51°21.818 2°43.38 344.2 12.9 338.5 24
2002-12-17 08:59:22 51°21.834 2°43.37 343.8 12.6 338.2 23.4
2002-12-17 08:59:26 51°21.847 2°43.362 344 12.5 338.5 22.9
2002-12-17 08:59:31 51°21.863 2°43.352 343.7 12.4 338.1 23.3
2002-12-17 08:59:37 51°21.882 2°43.34 343.8 12.3 338.4 22.8
2002-12-17 08:59:41 51°21.895 2°43.332 344 12.4 338.9 22.7
2002-12-17 08:59:46 51°21.911 2°43.322 344.2 12.6 339.3 24.1
2002-12-17 08:59:51 51°21.928 2°43.312 344.8 12.8 339.9 25.2
2002-12-17 08:59:57 51°21.948 2°43.301 344.7 12.9 340.1 25.9
2002-12-17 09:00:02 51°21.966 2°43.291 345.5 13.1 340.5 25.6
2002-12-17 09:00:06 51°21.979 2°43.283 345 13.1 340.4 25.1
2002-12-17 09:00:12 51°22 2°43.272 345.3 13.1 340.3 24.1
2002-12-17 09:00:17 51°22.017 2°43.262 345.7 13.2 340.6 24.1
2002-12-17 09:00:22 51°22.035 2°43.253 345 13.3 340.7 22.2
2002-12-17 09:00:26 51°22.049 2°43.245 345.3 13.3 340.6 22.6
2002-12-17 09:00:32 51°22.07 2°43.233 345.3 13.4 340.5 22.9
2002-12-17 09:00:37 51°22.087 2°43.223 345.2 13.4 340.4 22.9
2002-12-17 09:00:42 51°22.105 2°43.213 345 13.4 339.9 22.8
2002-12-17 09:00:46 51°22.119 2°43.204 344 13.4 339.5 22.9
2002-12-17 09:00:51 51°22.136 2°43.193 344.8 13.4 339.2 23.3
2002-12-17 09:00:57 51°22.157 2°43.182 344.5 13.3 339.7 23.6
2002-12-17 09:01:02 51°22.174 2°43.171 344.7 13.3 339.8 23.5
2002-12-17 09:01:06 51°22.188 2°43.163 344.8 13.3 340.2 24.3
2002-12-17 09:01:12 51°22.209 2°43.152 345 13.4 340.1 23.9
2002-12-17 09:01:17 51°22.227 2°43.142 345.7 13.4 340.6 24.5
2002-12-17 09:01:22 51°22.244 2°43.131 344.8 13.5 340.1 23.8
2002-12-17 09:01:26 51°22.259 2°43.124 345.3 13.5 340.6 24.7
2002-12-17 09:01:32 51°22.28 2°43.112 345.3 13.6 340.7 25
2002-12-17 09:01:37 51°22.298 2°43.102 345.2 13.5 340.7 25
2002-12-17 09:01:41 51°22.312 2°43.093 344.8 13.5 340 25.1
2002-12-17 09:01:45 51°22.326 2°43.085 344.8 13.6 339.9 25.8
2002-12-17 09:01:52 51°22.35 2°43.07 344.7 13.5 338.9 25.8
2002-12-17 09:01:57 51°22.368 2°43.06 344.3 13.5 339.5 25.8
2002-12-17 09:02:02 51°22.385 2°43.049 344 13.5 339 25
2002-12-17 09:02:06 51°22.399 2°43.041 344.5 13.2 338.7 -999
2002-12-17 09:02:10 51°22.412 2°43.032 344.3 12.9 338.6 -999
2002-12-17 09:02:17 51°22.435 2°43.018 343.8 12.8 338.6 24.3
2002-12-17 09:02:21 51°22.448 2°43.01 343.7 12.7 338.6 25.5
2002-12-17 09:02:27 51°22.468 2°42.998 343.8 12.7 338.8 26.3
2002-12-17 09:02:32 51°22.485 2°42.988 344.5 12.9 339.3 26.5
2002-12-17 09:02:37 51°22.502 2°42.978 345.3 13.1 340.2 26.4
2002-12-17 09:02:42 51°22.52 2°42.968 345.2 13.3 340.3 26.6
2002-12-17 09:02:45 51°22.53 2°42.963 345.5 13.4 341 26.9
2002-12-17 09:02:50 51°22.548 2°42.953 345.7 13.5 340.8 27
2002-12-17 09:02:57 51°22.572 2°42.939 345.8 13.5 340.6 26.4
2002-12-17 09:03:01 51°22.586 2°42.931 345.5 13.3 340.5 26.2
2002-12-17 09:03:07 51°22.608 2°42.919 345 13.3 340.6 25.7
2002-12-17 09:03:11 51°22.622 2°42.911 344.8 13.3 340.5 27
2002-12-17 09:03:17 51°22.643 2°42.899 345 13.3 340.4 27.6
2002-12-17 09:03:21 51°22.656 2°42.891 344.5 13.4 339.8 28.1
2002-12-17 09:03:27 51°22.677 2°42.879 344.5 13.3 340.2 28.2
2002-12-17 09:03:31 51°22.691 2°42.871 344.7 13.3 340 28.6
2002-12-17 09:03:37 51°22.712 2°42.859 344.7 13.3 340.1 28.6
2002-12-17 09:03:41 51°22.726 2°42.851 344.5 13.2 340.1 28.6
2002-12-17 09:03:45 51°22.739 2°42.843 344.7 13.2 339.7 28.1
2002-12-17 09:03:51 51°22.76 2°42.831 344.3 13.2 339.8 28.1
2002-12-17 09:03:57 51°22.781 2°42.819 344.8 13.3 340.2 28.1
2002-12-17 09:04:01 51°22.795 2°42.812 345.2 13.3 341 27.8
2002-12-17 09:04:06 51°22.813 2°42.802 345.2 13.4 341.2 27.9
2002-12-17 09:04:12 51°22.834 2°42.79 345.2 13.4 340.7 27.8
2002-12-17 09:04:17 51°22.851 2°42.78 345.2 13.5 340.6 28.1
2002-12-17 09:04:21 51°22.866 2°42.772 345.3 13.6 340.6 27.6
2002-12-17 09:04:27 51°22.887 2°42.76 345.2 13.6 340.7 27.4
2002-12-17 09:04:32 51°22.905 2°42.75 345 13.7 340.7 28
2002-12-17 09:04:37 51°22.923 2°42.74 344.7 13.7 340.6 28.1
2002-12-17 09:04:41 51°22.937 2°42.733 345.3 13.7 340.9 27.6
2002-12-17 09:04:47 51°22.959 2°42.72 345.2 13.7 340.8 27.6
2002-12-17 09:04:52 51°22.977 2°42.711 345.5 13.6 340.8 27.9
2002-12-17 09:04:57 51°22.995 2°42.701 345.5 13.7 341 28
2002-12-17 09:05:02 51°23.013 2°42.691 345.2 13.6 340.7 28.2
2002-12-17 09:05:06 51°23.027 2°42.683 345.5 13.6 340.9 27.8
2002-12-17 09:05:12 51°23.048 2°42.672 345.3 13.6 341.2 27.9
2002-12-17 09:05:17 51°23.066 2°42.662 346 13.5 341.5 27.8
2002-12-17 09:05:22 51°23.084 2°42.652 345.7 13.6 341.3 27.9
2002-12-17 09:05:27 51°23.101 2°42.643 345.7 13.5 341.4 28
2002-12-17 09:05:31 51°23.116 2°42.635 344.8 13.5 340.8 27.8
2002-12-17 09:05:37 51°23.137 2°42.623 344.7 13.5 340.8 28.1
2002-12-17 09:05:42 51°23.155 2°42.613 344.7 13.6 340.7 27.9
2002-12-17 09:05:46 51°23.169 2°42.606 345.2 13.7 341.3 27.7
2002-12-17 09:05:52 51°23.19 2°42.594 345.3 13.6 340.9 27.9
2002-12-17 09:05:57 51°23.208 2°42.584 345 13.5 340.9 27.8
2002-12-17 09:06:01 51°23.222 2°42.575 343.8 13.5 339.9 27.7
2002-12-17 09:06:06 51°23.24 2°42.566 344.2 13.4 340.4 28.1
2002-12-17 09:06:11 51°23.257 2°42.556 344.2 13.4 340.4 28.2
2002-12-17 09:06:17 51°23.279 2°42.545 344.8 13.5 340.9 27.9
2002-12-17 09:06:22 51°23.297 2°42.535 345.2 13.6 341.1 27.3
2002-12-17 09:06:26 51°23.311 2°42.527 345.7 13.6 341.3 27.3
2002-12-17 09:06:31 51°23.329 2°42.517 345.5 13.7 341.6 26.7
2002-12-17 09:06:37 51°23.351 2°42.505 345.5 13.7 341.2 27.8
2002-12-17 09:06:42 51°23.369 2°42.496 345.5 13.7 341.6 28.7
2002-12-17 09:06:47 51°23.387 2°42.487 345.5 13.7 341.7 29.2
2002-12-17 09:06:51 51°23.402 2°42.48 346.3 13.7 342.5 29.2
2002-12-17 09:06:57 51°23.423 2°42.468 346.2 13.7 342 29.6
2002-12-17 09:07:01 51°23.438 2°42.461 345.8 13.7 341.9 29.6
2002-12-17 09:07:06 51°23.456 2°42.451 345.7 13.7 341.4 29.6
2002-12-17 09:07:12 51°23.477 2°42.439 345.3 13.7 341.3 28.7
2002-12-17 09:07:17 51°23.495 2°42.429 345.3 13.8 341 29
2002-12-17 09:07:22 51°23.514 2°42.419 345.7 13.8 341.2 29.5
2002-12-17 09:07:26 51°23.528 2°42.411 345.2 13.6 340.7 29.5
2002-12-17 09:07:31 51°23.545 2°42.402 345.3 13.4 340.8 29.3
2002-12-17 09:07:37 51°23.567 2°42.39 344.5 13.4 341.1 29.1
2002-12-17 09:07:41 51°23.581 2°42.382 344.5 13.4 340.9 29.2
2002-12-17 09:07:47 51°23.602 2°42.37 344.8 13.5 341.1 28.9
2002-12-17 09:07:52 51°23.62 2°42.361 345.7 13.5 341.4 29.2
2002-12-17 09:07:57 51°23.637 2°42.351 345.5 13.5 341.4 29.2
2002-12-17 09:08:01 51°23.652 2°42.344 345.7 13.5 341.6 29.1
2002-12-17 09:08:07 51°23.673 2°42.332 345.2 13.5 341.3 29.3
2002-12-17 09:08:10 51°23.684 2°42.327 345.2 13.5 341.5 29.4
2002-12-17 09:08:17 51°23.709 2°42.313 345.2 13.5 341.2 29.3
2002-12-17 09:08:21 51°23.723 2°42.305 344.8 13.5 340.9 29.3
2002-12-17 09:08:27 51°23.744 2°42.293 345.2 13.5 340.7 28.7
2002-12-17 09:08:32 51°23.761 2°42.284 345.7 13.4 341.3 29
2002-12-17 09:08:37 51°23.779 2°42.273 345 13.5 341.1 28.5
2002-12-17 09:08:41 51°23.793 2°42.266 345 13.4 341 27.9
2002-12-17 09:08:47 51°23.814 2°42.254 344.7 13.5 341.2 27.3
2002-12-17 09:08:51 51°23.829 2°42.246 345.2 13.6 341.5 27.1
2002-12-17 09:08:57 51°23.85 2°42.236 346.2 13.6 342.2 26.8
2002-12-17 09:09:01 51°23.865 2°42.228 346 13.6 341 27.6
2002-12-17 09:09:06 51°23.882 2°42.218 344.8 13.6 340.5 27.3
2002-12-17 09:09:09 51°23.893 2°42.212 344.8 13.6 340.5 25.6
2002-12-17 09:09:17 51°23.922 2°42.196 344.8 13.6 341 25.7
2002-12-17 09:09:22 51°23.939 2°42.186 345 13.5 340.4 26.6
2002-12-17 09:09:26 51°23.953 2°42.178 344.5 13.5 340.2 27.7
2002-12-17 09:09:32 51°23.974 2°42.165 344.2 13.4 340 27.3
2002-12-17 09:09:37 51°23.992 2°42.155 344.2 13.5 339.9 27.8
2002-12-17 09:09:41 51°24.006 2°42.147 344.3 13.5 339.9 27.5
2002-12-17 09:09:47 51°24.027 2°42.135 344 13.5 340 27
2002-12-17 09:09:51 51°24.041 2°42.126 344.5 13.5 340.2 27.2
2002-12-17 09:09:57 51°24.063 2°42.114 344.3 13.6 340.4 27.3
2002-12-17 09:10:01 51°24.077 2°42.106 344.3 13.6 340.3 27.5
2002-12-17 09:10:06 51°24.095 2°42.096 344.7 13.6 340.6 27.2
2002-12-17 09:10:12 51°24.117 2°42.084 344.8 13.7 340.5 27.2
2002-12-17 09:10:17 51°24.135 2°42.074 345 13.8 340.7 27.1
2002-12-17 09:10:21 51°24.149 2°42.067 345.8 13.7 341.4 26.9
2002-12-17 09:10:27 51°24.171 2°42.054 345.3 13.7 341.3 27
2002-12-17 09:10:32 51°24.188 2°42.045 344.7 13.5 340.6 27.1
2002-12-17 09:10:37 51°24.205 2°42.035 344.3 13.3 340.3 27.4
2002-12-17 09:10:42 51°24.223 2°42.025 344.7 13.2 340.1 27.1
2002-12-17 09:10:46 51°24.237 2°42.017 344.5 13.2 340.2 27.1
2002-12-17 09:10:52 51°24.258 2°42.005 345.3 13.3 340.5 26.6
2002-12-17 09:10:57 51°24.275 2°41.996 345.5 13.4 340.8 25.5
2002-12-17 09:11:01 51°24.29 2°41.988 345.2 13.5 340.9 23.9
2002-12-17 09:11:06 51°24.307 2°41.978 345.5 13.5 340.6 22.2
2002-12-17 09:11:12 51°24.328 2°41.965 344.7 13.5 340 22.3
2002-12-17 09:11:17 51°24.346 2°41.957 345.2 13.4 341 26.3
2002-12-17 09:11:21 51°24.36 2°41.948 345.5 13.3 340.8 27.8
2002-12-17 09:11:27 51°24.38 2°41.937 345.5 13.3 340.8 27.8
2002-12-17 09:11:29 51°24.387 2°41.932 345 13.3 340.6 27.8
2002-12-17 09:11:37 51°24.416 2°41.917 345.3 13.4 340.9 27
2002-12-17 09:11:41 51°24.43 2°41.909 344.8 13.5 340.3 28.6
2002-12-17 09:11:47 51°24.451 2°41.897 345.3 13.5 341 28.9
2002-12-17 09:11:51 51°24.465 2°41.889 344.3 13.6 340.5 29.1
2002-12-17 09:11:57 51°24.486 2°41.878 345 13.6 341 28.7
2002-12-17 09:12:02 51°24.504 2°41.868 345.5 13.6 341 29.1
2002-12-17 09:12:06 51°24.519 2°41.86 345.3 13.6 341.1 29
2002-12-17 09:12:11 51°24.537 2°41.85 345.3 13.7 340.7 28.5
2002-12-17 09:12:17 51°24.558 2°41.838 345.2 13.6 340.5 28
2002-12-17 09:12:21 51°24.572 2°41.83 344.8 13.6 340.4 27.1
2002-12-17 09:12:27 51°24.594 2°41.818 345.3 13.5 341.1 25.9
2002-12-17 09:12:32 51°24.611 2°41.808 345 13.5 341.1 25.4
2002-12-17 09:12:37 51°24.629 2°41.799 345 13.6 341 25.1
2002-12-17 09:12:41 51°24.643 2°41.791 345.5 13.4 341.1 24.4
2002-12-17 09:12:47 51°24.664 2°41.779 344.8 13.5 340.7 23.6
2002-12-17 09:12:50 51°24.675 2°41.774 345 13.6 341 26.6
2002-12-17 09:12:57 51°24.7 2°41.76 345.2 13.6 341 27.1
2002-12-17 09:13:01 51°24.714 2°41.752 345.2 13.6 341 26.3
2002-12-17 09:13:06 51°24.732 2°41.742 345.7 13.6 340.9 25.1
2002-12-17 09:13:12 51°24.754 2°41.731 345.7 13.6 341.6 22.8
2002-12-17 09:13:16 51°24.768 2°41.723 346 13.6 341.2 26.1
2002-12-17 09:13:21 51°24.786 2°41.713 345.2 13.6 341.2 27.3
2002-12-17 09:13:27 51°24.807 2°41.701 345.3 13.5 340.9 28.5
2002-12-17 09:13:31 51°24.822 2°41.693 344.8 13.5 340.8 28.4
2002-12-17 09:13:37 51°24.842 2°41.681 344.7 13.5 340.5 26.9
2002-12-17 09:13:42 51°24.86 2°41.671 344.3 13.5 340.3 26
2002-12-17 09:13:47 51°24.878 2°41.66 343.8 13.5 339.7 26.5
2002-12-17 09:13:52 51°24.895 2°41.65 344.5 13.5 340.2 26.8
2002-12-17 09:13:57 51°24.913 2°41.64 344 13.6 339.8 24.1
2002-12-17 09:14:01 51°24.927 2°41.632 344.5 13.6 340.5 26.4
2002-12-17 09:14:06 51°24.945 2°41.622 344.3 13.6 340.2 27
2002-12-17 09:14:11 51°24.963 2°41.612 344 13.6 340.5 27
2002-12-17 09:14:17 51°24.984 2°41.6 344.7 13.6 340.6 26.9
2002-12-17 09:14:21 51°24.999 2°41.592 344.8 13.5 341.1 27
2002-12-17 09:14:26 51°25.017 2°41.582 345.5 13.6 341.3 27
2002-12-17 09:14:32 51°25.038 2°41.571 345.2 13.5 341 25.8
2002-12-17 09:14:37 51°25.055 2°41.561 345.5 13.5 341.2 25.9
2002-12-17 09:14:42 51°25.073 2°41.551 345 13.6 341.1 25.2
2002-12-17 09:14:46 51°25.088 2°41.543 345 13.6 341 23.6
2002-12-17 09:14:52 51°25.109 2°41.532 345.2 13.5 340.6 25.4
2002-12-17 09:14:56 51°25.123 2°41.523 344.8 13.6 340.7 26.2
2002-12-17 09:15:01 51°25.141 2°41.514 345.5 13.6 341.1 26.6
2002-12-17 09:15:07 51°25.162 2°41.502 345.3 13.6 341.6 27
2002-12-17 09:15:12 51°25.18 2°41.494 345.5 13.4 342.4 27.9
2002-12-17 09:15:17 51°25.197 2°41.485 346 13.3 342.2 27.5
2002-12-17 09:15:21 51°25.212 2°41.477 346 13.4 342.4 27.7
2002-12-17 09:15:27 51°25.233 2°41.466 345.7 13.5 341.9 26.9
2002-12-17 09:15:32 51°25.251 2°41.456 345.2 13.6 341.2 26
2002-12-17 09:15:37 51°25.27 2°41.447 345.5 13.7 341.8 27.5
2002-12-17 09:15:42 51°25.287 2°41.436 345 13.7 341.2 27.8
2002-12-17 09:15:46 51°25.302 2°41.429 345.2 13.7 341.5 27.7
2002-12-17 09:15:51 51°25.32 2°41.419 344.8 13.7 341.1 27.5
2002-12-17 09:15:57 51°25.341 2°41.408 345.3 13.8 341.5 26.7
2002-12-17 09:16:02 51°25.359 2°41.398 345.7 13.8 341.3 24.6
2002-12-17 09:16:05 51°25.37 2°41.392 345.3 13.7 341.3 25.8
2002-12-17 09:16:12 51°25.395 2°41.378 344.7 13.7 340.8 27.4
2002-12-17 09:16:17 51°25.413 2°41.368 344.7 13.7 341.2 27
2002-12-17 09:16:22 51°25.431 2°41.358 344.5 13.7 340.7 27.3
2002-12-17 09:16:27 51°25.448 2°41.347 344.3 13.6 339.9 27.9
2002-12-17 09:16:31 51°25.463 2°41.34 344.2 13.5 340.4 28.1
2002-12-17 09:16:37 51°25.484 2°41.328 344.3 13.5 340.5 28.6
2002-12-17 09:16:41 51°25.498 2°41.32 345.2 13.6 341 29.8
2002-12-17 09:16:47 51°25.519 2°41.307 345.3 13.6 340.6 29.9
2002-12-17 09:16:49 51°25.526 2°41.304 345.2 13.6 340.6 29.5
2002-12-17 09:16:57 51°25.555 2°41.287 344.3 13.7 340.2 29.2
2002-12-17 09:17:02 51°25.572 2°41.276 344.3 13.6 339.6 28.6
2002-12-17 09:17:06 51°25.586 2°41.268 343.7 13.6 339.3 29.9
2002-12-17 09:17:12 51°25.608 2°41.256 344.7 13.6 339.9 29.8
2002-12-17 09:17:17 51°25.625 2°41.245 344.3 13.6 339.5 29.8
2002-12-17 09:17:21 51°25.639 2°41.237 344.8 13.6 339.7 29.3
2002-12-17 09:17:27 51°25.661 2°41.224 344 13.6 339.5 28.6
2002-12-17 09:17:31 51°25.675 2°41.216 345 13.7 340.5 26
2002-12-17 09:17:37 51°25.697 2°41.203 344.5 13.7 340.3 26.5
2002-12-17 09:17:41 51°25.711 2°41.196 345.3 13.7 341.1 28.3
2002-12-17 09:17:47 51°25.732 2°41.183 344.7 13.7 340 29
2002-12-17 09:17:51 51°25.746 2°41.176 345.3 13.4 340.1 29.9
2002-12-17 09:17:57 51°25.767 2°41.163 345 13.4 339.3 30.2
2002-12-17 09:18:01 51°25.781 2°41.155 344.7 13.4 340 30.3
2002-12-17 09:18:05 51°25.795 2°41.147 345 13.4 340.3 30.4
2002-12-17 09:18:11 51°25.816 2°41.135 345.3 13.5 340.5 30.3
2002-12-17 09:18:17 51°25.838 2°41.123 344.7 13.5 340.5 30.4
2002-12-17 09:18:21 51°25.851 2°41.115 345.2 13.4 340.4 30.3
2002-12-17 09:18:25 51°25.866 2°41.107 345.5 13.5 340.3 30.2
2002-12-17 09:18:31 51°25.887 2°41.095 345 13.5 340.5 30
2002-12-17 09:18:37 51°25.908 2°41.083 345 13.5 340.4 30
2002-12-17 09:18:41 51°25.922 2°41.076 345.7 13.4 341 30.2
2002-12-17 09:18:47 51°25.943 2°41.064 345.8 13.4 341.5 30.1
2002-12-17 09:18:51 51°25.957 2°41.057 346.5 13.4 341.4 30.1
2002-12-17 09:18:57 51°25.978 2°41.044 345.3 13.3 340.8 29.8
2002-12-17 09:19:02 51°25.995 2°41.036 345 13.2 341.1 30.1
2002-12-17 09:19:05 51°26.006 2°41.03 345.3 13.3 341.2 30.2
2002-12-17 09:19:11 51°26.027 2°41.019 345.7 13.3 341.2 30.2
2002-12-17 09:19:17 51°26.048 2°41.006 345.3 13.3 340.6 30.6
2002-12-17 09:19:22 51°26.066 2°40.996 344.5 13.4 340.5 30.6
2002-12-17 09:19:26 51°26.079 2°40.988 344.3 13.4 340.2 30.6
2002-12-17 09:19:32 51°26.1 2°40.976 344 13.4 339.8 31.1
2002-12-17 09:19:37 51°26.118 2°40.966 344.5 13.5 340.1 31.5
2002-12-17 09:19:42 51°26.135 2°40.955 344 13.5 339.8 31.7
2002-12-17 09:19:45 51°26.146 2°40.949 343.7 13.5 339.7 31.7
2002-12-17 09:19:51 51°26.167 2°40.937 344 13.5 340 31.9
2002-12-17 09:19:57 51°26.188 2°40.924 344 13.6 339.7 32
2002-12-17 09:20:02 51°26.206 2°40.913 344 13.6 339.9 32.2
2002-12-17 09:20:06 51°26.22 2°40.905 344.7 13.7 340.1 32.1
2002-12-17 09:20:12 51°26.242 2°40.894 346.5 13.7 341.6 32.6
2002-12-17 09:20:17 51°26.26 2°40.887 347.7 13.6 342.6 32.7
2002-12-17 09:20:22 51°26.278 2°40.879 349.3 13.6 344.5 32.6
2002-12-17 09:20:26 51°26.292 2°40.874 351.8 13.4 346.7 33.1
2002-12-17 09:20:31 51°26.311 2°40.87 355.3 13.5 349.9 33.2
2002-12-17 09:20:37 51°26.334 2°40.867 358.5 13.5 353.6 33.4
2002-12-17 09:20:41 51°26.348 2°40.866 0.7 13.5 356.2 33
2002-12-17 09:20:47 51°26.371 2°40.867 3.5 13.5 358.3 32.3
2002-12-17 09:20:50 51°26.382 2°40.868 4.8 13.5 0.9 33.3
2002-12-17 09:20:57 51°26.408 2°40.869 5.7 13.4 1.7 33.4
2002-12-17 09:21:01 51°26.423 2°40.871 7 13.3 3.4 33.8
2002-12-17 09:21:06 51°26.441 2°40.874 9.2 13.3 4.6 34.1
2002-12-17 09:21:11 51°26.46 2°40.879 11.7 13.4 8 33.4
2002-12-17 09:21:17 51°26.482 2°40.885 14 13.5 9.8 33.5
2002-12-17 09:21:22 51°26.5 2°40.893 18 13.6 12.8 34.2
2002-12-17 09:21:27 51°26.518 2°40.903 20.8 13.5 16.1 34.3
2002-12-17 09:21:31 51°26.532 2°40.911 23.8 13.3 19.4 33.5
2002-12-17 09:21:37 51°26.552 2°40.925 25.8 13.3 21.4 32.7